Decoded Metar for KRDG (READING in PA, USA) (IATA:RDG) | Meteo·Mobile Aviation Weather
aviador You're here:

KRDG Decoded Metar

READING in PA, USA
Report Time2019-02-16 00:54:00
UTC Time2019-02-16 01:47:22
Flight Rules vfr VFR
Wind280° at 09 kt
W.Decomp.*RWY 31: 8.6 kt HW 2.8 kt LCW
RWY 36: 3.4 kt HW 8.3 kt LCW
W.Rank280° ranks 4
Current wind is above 280° avg. (8.1)
Visibility9999 m
Phenomena:N/A
Clouds:Scattered 075 Hf
Expected CloudBase > 2,800 ft AGL from Temp-Dew spread
CeilingNone
Temp11°C (ISA -3)
Dew Point04°C (62% RH)
AAT6.4°C
QNH1004 hPa
Density Alt384 ft
Elevation358 ft
Report Wrong Elevation
Raw Report
KRDG 160054Z 28009KT 10SM SCT075 11/04 A2966 RMK AO2 SLP051
T01110039=

Extra information for KRDG:More info

Metar Taf Metar & Taf Last 4 Metars F.Rules Stats Wind Profile Meteogram Temp Stats Airport Information Weather charts Add Link Nearby VenuesMetar ALERT Operation Metar Decoded Social comments

AIRNAV info for KRDG